createdAt,value
2024-01-08T00:02:04.929Z,13.48
2024-01-08T00:04:32.511Z,10.43
2024-01-08T00:07:00.762Z,12.43
2024-01-08T00:09:28.421Z,13.55
2024-01-08T00:11:55.635Z,17.77
2024-01-08T00:14:22.959Z,19.70
2024-01-08T00:16:50.294Z,12.63
2024-01-08T00:19:17.859Z,11.55
2024-01-08T00:21:45.367Z,14.88
2024-01-08T00:24:12.632Z,17.73
2024-01-08T00:26:40.012Z,15.13
2024-01-08T00:29:07.321Z,13.50
2024-01-08T00:31:34.691Z,9.45
2024-01-08T00:34:04.733Z,14.75
2024-01-08T00:36:35.892Z,11.25
2024-01-08T00:39:03.550Z,16.25
2024-01-08T00:41:30.878Z,13.05
2024-01-08T00:43:58.444Z,11.15
2024-01-08T00:46:25.845Z,14.05
2024-01-08T00:48:53.276Z,16.38
2024-01-08T00:51:20.523Z,8.10
2024-01-08T00:53:47.832Z,11.68
2024-01-08T00:56:16.793Z,14.32
2024-01-08T00:58:44.454Z,12.35
2024-01-08T01:01:12.373Z,16.33
2024-01-08T01:03:39.814Z,11.70
2024-01-08T01:06:07.721Z,10.20
2024-01-08T01:08:35.387Z,13.43
2024-01-08T01:11:03.545Z,13.55
2024-01-08T01:13:30.865Z,16.42
2024-01-08T01:15:58.291Z,9.75
2024-01-08T01:18:25.734Z,18.08
2024-01-08T01:20:53.120Z,13.73
2024-01-08T01:23:20.603Z,15.05
2024-01-08T01:25:48.349Z,23.63
2024-01-08T01:28:15.793Z,16.45
2024-01-08T01:30:43.136Z,13.95
2024-01-08T01:33:10.549Z,16.08
2024-01-08T01:35:37.994Z,13.38
2024-01-08T01:38:05.358Z,8.85
2024-01-08T01:40:32.646Z,19.48
2024-01-08T01:43:00.161Z,12.95
2024-01-08T01:45:27.566Z,6.03
2024-01-08T01:47:57.823Z,9.73
2024-01-08T01:50:25.394Z,7.93
2024-01-08T01:52:52.769Z,14.18
2024-01-08T01:55:20.098Z,16.10
2024-01-08T01:57:47.545Z,15.77
2024-01-08T02:00:15.744Z,10.27
2024-01-08T02:02:43.631Z,12.00
2024-01-08T02:05:11.761Z,13.80
2024-01-08T02:07:40.632Z,10.30
2024-01-08T02:10:08.589Z,9.38
2024-01-08T02:12:35.849Z,12.30
2024-01-08T02:15:05.596Z,12.98
2024-01-08T02:17:34.182Z,8.55
2024-01-08T02:20:01.565Z,10.43
2024-01-08T02:22:28.865Z,13.90
2024-01-08T02:24:56.289Z,10.68
2024-01-08T02:27:23.442Z,8.85
2024-01-08T02:29:50.714Z,6.95
2024-01-08T02:32:18.053Z,14.55
2024-01-08T02:34:45.377Z,12.95
2024-01-08T02:37:13.658Z,14.55
2024-01-08T02:39:40.963Z,11.77
2024-01-08T02:42:08.229Z,12.25
2024-01-08T02:44:35.537Z,13.13
2024-01-08T02:47:03.164Z,8.82
2024-01-08T02:49:30.482Z,11.77
2024-01-08T02:51:57.943Z,11.80
2024-01-08T02:54:25.270Z,25.60
2024-01-08T02:56:52.595Z,11.20
2024-01-08T02:59:19.965Z,9.05
2024-01-08T03:01:49.072Z,13.30
2024-01-08T03:04:16.932Z,12.88
2024-01-08T03:06:44.310Z,12.68
2024-01-08T03:09:11.706Z,10.40
2024-01-08T03:11:38.997Z,14.52
2024-01-08T03:14:06.347Z,14.52
2024-01-08T03:16:33.810Z,12.60
2024-01-08T03:19:01.162Z,16.83
2024-01-08T03:21:28.549Z,11.23
2024-01-08T03:23:55.956Z,8.13
2024-01-08T03:26:25.542Z,9.40
2024-01-08T03:28:52.960Z,13.02
2024-01-08T03:31:20.269Z,8.27
2024-01-08T03:33:47.545Z,8.70
2024-01-08T03:36:15.015Z,10.48
2024-01-08T03:38:43.387Z,11.18
2024-01-08T03:41:10.784Z,8.30
2024-01-08T03:43:38.088Z,9.25
2024-01-08T03:46:05.523Z,12.02
2024-01-08T03:48:32.842Z,8.45
2024-01-08T03:51:00.226Z,15.55
2024-01-08T03:53:27.606Z,13.75
2024-01-08T03:55:54.981Z,9.85
2024-01-08T03:58:22.422Z,16.13
2024-01-08T04:00:53.131Z,16.85
2024-01-08T04:03:21.050Z,10.50
2024-01-08T04:05:48.333Z,17.63
2024-01-08T04:08:16.777Z,12.23
2024-01-08T04:10:45.230Z,8.98
2024-01-08T04:13:12.638Z,10.95
2024-01-08T04:15:39.862Z,13.38
2024-01-08T04:18:07.187Z,11.82
2024-01-08T04:20:34.707Z,9.93
2024-01-08T04:23:02.036Z,9.13
2024-01-08T04:25:29.376Z,20.85
2024-01-08T04:27:56.560Z,8.55
2024-01-08T04:30:24.111Z,6.20
2024-01-08T04:32:52.637Z,15.43
2024-01-08T04:35:20.204Z,6.18
2024-01-08T04:37:49.053Z,11.95
2024-01-08T04:40:16.497Z,8.25
2024-01-08T04:42:43.719Z,17.83
2024-01-08T04:45:11.087Z,10.60
2024-01-08T04:47:38.456Z,9.23
2024-01-08T04:50:06.791Z,7.22
2024-01-08T04:52:34.061Z,12.02
2024-01-08T04:55:01.314Z,12.27
2024-01-08T04:57:29.889Z,15.93
2024-01-08T04:59:57.139Z,8.80
2024-01-08T05:02:24.420Z,13.38
2024-01-08T05:04:52.325Z,8.20
2024-01-08T05:07:20.834Z,15.52
2024-01-08T05:09:48.805Z,11.00
2024-01-08T05:12:16.301Z,8.75
2024-01-08T05:14:43.606Z,14.25
2024-01-08T05:17:10.886Z,16.83
2024-01-08T05:19:38.415Z,18.33
2024-01-08T05:22:05.704Z,13.57
2024-01-08T05:24:33.070Z,15.95
2024-01-08T05:27:00.325Z,14.75
2024-01-08T05:29:27.571Z,11.18
2024-01-08T05:31:54.918Z,21.20
2024-01-08T05:34:22.368Z,23.27
2024-01-08T05:36:51.934Z,15.85
2024-01-08T05:39:20.201Z,11.75
2024-01-08T05:41:47.447Z,13.20
2024-01-08T05:44:14.762Z,15.05
2024-01-08T05:46:45.541Z,14.57
2024-01-08T05:49:13.032Z,12.25
2024-01-08T05:51:40.573Z,8.18
2024-01-08T05:54:07.817Z,13.75
2024-01-08T05:56:35.183Z,16.95
2024-01-08T05:59:02.646Z,14.05
2024-01-08T06:01:29.849Z,13.55
2024-01-08T06:03:57.434Z,25.13
2024-01-08T06:06:24.702Z,16.98
2024-01-08T06:08:53.208Z,21.17
2024-01-08T06:11:20.588Z,19.65
2024-01-08T06:13:48.085Z,10.40
2024-01-08T06:16:16.985Z,16.00
2024-01-08T06:18:44.363Z,16.17
2024-01-08T06:21:11.749Z,14.77
2024-01-08T06:23:39.097Z,16.73
2024-01-08T06:26:06.570Z,10.25
2024-01-08T06:28:34.017Z,18.38
2024-01-08T06:31:04.615Z,16.42
2024-01-08T06:33:32.427Z,15.60
2024-01-08T06:36:00.649Z,14.23
2024-01-08T06:38:27.949Z,16.98
2024-01-08T06:40:55.556Z,16.83
2024-01-08T06:43:23.105Z,12.77
2024-01-08T06:45:50.577Z,14.02
2024-01-08T06:48:17.928Z,15.02
2024-01-08T06:50:45.347Z,17.27
2024-01-08T06:53:12.805Z,10.20
2024-01-08T06:55:40.199Z,10.43
2024-01-08T06:58:07.614Z,12.18
2024-01-08T07:00:35.252Z,12.23
2024-01-08T07:03:03.309Z,8.32
2024-01-08T07:05:34.250Z,16.38
2024-01-08T07:08:05.907Z,18.48
2024-01-08T07:10:34.661Z,17.20
2024-01-08T07:13:05.106Z,14.82
2024-01-08T07:15:48.217Z,18.23
2024-01-08T07:18:16.579Z,13.88
2024-01-08T07:20:44.158Z,9.25
2024-01-08T07:23:12.982Z,26.52
2024-01-08T07:25:41.101Z,11.65
2024-01-08T07:28:10.065Z,14.05
2024-01-08T07:30:37.695Z,8.32
2024-01-08T07:33:05.611Z,11.70
2024-01-08T07:35:33.352Z,12.05
2024-01-08T07:38:03.947Z,17.88
2024-01-08T07:40:31.492Z,15.15
2024-01-08T07:42:59.020Z,13.00
2024-01-08T07:45:27.788Z,11.93
2024-01-08T07:47:59.476Z,16.58
2024-01-08T07:50:27.513Z,12.18
2024-01-08T07:52:55.002Z,17.20
2024-01-08T07:55:22.544Z,20.02
2024-01-08T07:57:49.931Z,17.10
2024-01-08T08:00:18.186Z,12.45
2024-01-08T08:02:48.362Z,9.52
2024-01-08T08:05:17.441Z,30.55
2024-01-08T08:07:44.908Z,15.43
2024-01-08T08:10:12.207Z,11.80
2024-01-08T08:12:39.657Z,23.30
2024-01-08T08:15:11.956Z,18.20
2024-01-08T08:17:43.314Z,8.63
2024-01-08T08:20:12.698Z,16.50
2024-01-08T08:22:44.320Z,26.42
2024-01-08T08:25:12.707Z,20.15
2024-01-08T08:27:40.088Z,17.75
2024-01-08T08:30:09.635Z,17.27
2024-01-08T08:32:37.078Z,18.55
2024-01-08T08:35:05.622Z,15.30
2024-01-08T08:37:44.047Z,16.75
2024-01-08T08:40:20.335Z,19.83
2024-01-08T08:42:50.273Z,8.93
2024-01-08T08:45:19.090Z,19.73
2024-01-08T08:47:47.233Z,18.25
2024-01-08T08:50:14.797Z,15.10
2024-01-08T08:52:45.629Z,12.32
2024-01-08T08:55:13.947Z,15.63
2024-01-08T08:57:42.380Z,13.18
2024-01-08T09:00:11.896Z,9.43
2024-01-08T09:02:40.668Z,10.57
2024-01-08T09:05:11.257Z,11.80
2024-01-08T09:07:38.822Z,12.23
2024-01-08T09:10:07.381Z,15.40
2024-01-08T09:12:34.659Z,12.00
2024-01-08T09:15:02.035Z,17.45
2024-01-08T09:17:30.799Z,8.68
2024-01-08T09:19:59.165Z,13.77
2024-01-08T09:22:26.512Z,11.15
2024-01-08T09:24:53.803Z,12.60
2024-01-08T09:27:21.254Z,11.32
2024-01-08T09:29:49.938Z,14.60
2024-01-08T09:32:17.193Z,10.68
2024-01-08T09:34:44.483Z,10.57
2024-01-08T09:37:11.835Z,14.13
2024-01-08T09:39:39.146Z,9.40
2024-01-08T09:42:07.018Z,12.77
2024-01-08T09:44:34.520Z,17.00
2024-01-08T09:47:03.409Z,15.02
2024-01-08T09:49:34.976Z,10.43
2024-01-08T09:52:03.304Z,16.95
2024-01-08T09:54:31.300Z,7.32
2024-01-08T09:57:02.264Z,11.65
2024-01-08T09:59:29.564Z,14.82
2024-01-08T10:01:57.792Z,13.20
2024-01-08T10:04:28.592Z,18.33
2024-01-08T10:07:08.214Z,17.10
2024-01-08T10:09:36.333Z,15.57
2024-01-08T10:12:04.334Z,7.05
2024-01-08T10:14:32.114Z,9.95
2024-01-08T10:17:02.948Z,15.65
2024-01-08T10:19:32.077Z,13.98
2024-01-08T10:22:13.089Z,9.65
2024-01-08T10:24:44.884Z,14.98
2024-01-08T10:27:12.970Z,13.18
2024-01-08T10:29:41.692Z,10.32
2024-01-08T10:32:13.862Z,10.68
2024-01-08T10:34:43.152Z,17.20
2024-01-08T10:37:10.606Z,11.55
2024-01-08T10:39:47.419Z,11.25
2024-01-08T10:42:18.933Z,14.75
2024-01-08T10:44:46.461Z,15.23
2024-01-08T10:47:20.882Z,9.00
2024-01-08T10:49:52.475Z,13.93
2024-01-08T10:52:27.492Z,9.18
2024-01-08T10:54:57.309Z,10.73
2024-01-08T10:58:08.483Z,16.90
2024-01-08T11:00:35.938Z,11.40
2024-01-08T11:03:03.464Z,11.60
2024-01-08T11:05:33.853Z,15.32
2024-01-08T11:08:01.322Z,15.77
2024-01-08T11:10:30.444Z,11.18
2024-01-08T11:12:58.296Z,17.08
2024-01-08T11:15:30.081Z,15.85
2024-01-08T11:18:00.482Z,10.75
2024-01-08T11:20:48.379Z,14.75
2024-01-08T11:23:44.236Z,9.52
2024-01-08T11:26:23.201Z,14.80
2024-01-08T11:29:08.323Z,19.42
2024-01-08T11:31:47.597Z,10.50
2024-01-08T11:34:38.862Z,16.52
2024-01-08T11:37:33.019Z,13.00
2024-01-08T11:40:04.254Z,8.10
2024-01-08T11:42:32.807Z,11.13
2024-01-08T11:45:03.565Z,11.82
2024-01-08T11:47:33.235Z,11.75
2024-01-08T11:50:00.783Z,12.13
2024-01-08T11:52:28.450Z,10.43
2024-01-08T11:54:56.347Z,14.73
2024-01-08T11:57:26.952Z,8.40
2024-01-08T11:59:54.169Z,17.35
2024-01-08T12:02:26.153Z,13.38
2024-01-08T12:05:00.761Z,14.38
2024-01-08T12:07:29.143Z,12.75
2024-01-08T12:10:08.212Z,18.60
2024-01-08T12:12:36.832Z,9.68
2024-01-08T12:15:05.748Z,11.35
2024-01-08T12:17:33.452Z,21.63
2024-01-08T12:20:02.599Z,14.52
2024-01-08T12:22:29.923Z,13.65
2024-01-08T12:24:57.488Z,11.90
2024-01-08T12:27:27.299Z,11.38
2024-01-08T12:29:56.009Z,13.15
2024-01-08T12:32:23.977Z,18.17
2024-01-08T12:34:54.155Z,10.25
2024-01-08T12:37:22.242Z,20.90
2024-01-08T12:39:49.596Z,16.88
2024-01-08T12:42:18.476Z,10.00
2024-01-08T12:44:46.937Z,14.20
2024-01-08T12:47:14.218Z,15.02
2024-01-08T12:49:44.784Z,19.15
2024-01-08T12:52:13.120Z,13.35
2024-01-08T12:54:43.065Z,13.05
2024-01-08T12:57:12.513Z,18.67
2024-01-08T12:59:51.602Z,13.00
2024-01-08T13:02:22.403Z,9.68
2024-01-08T13:04:53.574Z,16.13
2024-01-08T13:07:21.952Z,19.75
2024-01-08T13:09:49.666Z,9.02
2024-01-08T13:12:20.672Z,9.63
2024-01-08T13:14:48.072Z,7.60
2024-01-08T13:17:17.287Z,8.15
2024-01-08T13:19:44.728Z,11.48
2024-01-08T13:22:12.791Z,13.50
2024-01-08T13:24:40.372Z,21.75
2024-01-08T13:27:14.130Z,18.98
2024-01-08T13:29:42.352Z,8.30
2024-01-08T13:32:10.551Z,17.67
2024-01-08T13:34:40.184Z,11.10
2024-01-08T13:37:07.504Z,13.57
2024-01-08T13:39:36.700Z,12.48
2024-01-08T13:42:04.339Z,18.20
2024-01-08T13:44:31.850Z,16.45
2024-01-08T13:47:00.564Z,17.45
2024-01-08T13:49:28.373Z,14.40
2024-01-08T13:51:56.091Z,20.15
2024-01-08T13:54:23.466Z,19.58
2024-01-08T13:56:54.082Z,13.90
2024-01-08T13:59:21.344Z,18.25
2024-01-08T14:01:48.622Z,8.82
2024-01-08T14:04:15.839Z,15.07
2024-01-08T14:06:43.005Z,14.70
2024-01-08T14:09:10.292Z,10.15
2024-01-08T14:11:39.903Z,14.15
2024-01-08T14:14:10.576Z,14.93
2024-01-08T14:16:37.910Z,10.52
2024-01-08T14:19:07.385Z,12.40
2024-01-08T14:21:37.120Z,13.63
2024-01-08T14:24:05.709Z,8.57
2024-01-08T14:26:32.995Z,10.00
2024-01-08T14:29:00.802Z,14.20
2024-01-08T14:31:28.104Z,17.63
2024-01-08T14:33:55.423Z,10.57
2024-01-08T14:36:22.823Z,14.65
2024-01-08T14:38:50.555Z,13.38
2024-01-08T14:41:17.964Z,14.07
2024-01-08T14:43:45.373Z,14.90
2024-01-08T14:46:12.812Z,11.00
2024-01-08T14:48:41.219Z,17.60
2024-01-08T14:51:10.720Z,16.70
2024-01-08T14:53:38.257Z,15.90
2024-01-08T14:56:05.867Z,15.73
2024-01-08T14:58:38.566Z,10.68
2024-01-08T15:01:06.822Z,9.95
2024-01-08T15:03:34.160Z,14.25
2024-01-08T15:06:01.907Z,8.25
2024-01-08T15:08:29.402Z,12.05
2024-01-08T15:10:58.494Z,15.40
2024-01-08T15:13:26.548Z,15.10
2024-01-08T15:15:54.700Z,16.42
2024-01-08T15:18:22.166Z,14.70
2024-01-08T15:20:49.521Z,12.32
2024-01-08T15:23:17.030Z,7.78
2024-01-08T15:25:46.872Z,11.88
2024-01-08T15:28:15.727Z,14.68
2024-01-08T15:30:43.199Z,11.27
2024-01-08T15:33:10.671Z,13.13
2024-01-08T15:35:38.126Z,10.07
2024-01-08T15:38:05.683Z,14.25
2024-01-08T15:40:33.285Z,20.58
2024-01-08T15:43:00.767Z,12.00
2024-01-08T15:45:30.191Z,16.80
2024-01-08T15:47:57.689Z,10.00
2024-01-08T15:50:25.292Z,13.55
2024-01-08T15:52:52.630Z,23.38
2024-01-08T15:55:21.132Z,18.92
2024-01-08T15:57:48.840Z,10.65
2024-01-08T16:00:17.811Z,11.88
2024-01-08T16:02:46.396Z,12.20
2024-01-08T16:05:13.877Z,17.52
2024-01-08T16:07:41.598Z,19.48
2024-01-08T16:10:09.528Z,12.45
2024-01-08T16:12:36.870Z,17.15
2024-01-08T16:15:05.829Z,20.77
2024-01-08T16:17:33.270Z,15.35
2024-01-08T16:20:00.954Z,13.45
2024-01-08T16:22:28.993Z,13.98
2024-01-08T16:24:56.286Z,13.40
2024-01-08T16:27:26.633Z,12.88
2024-01-08T16:29:54.344Z,12.05
2024-01-08T16:32:21.767Z,15.10
2024-01-08T16:34:53.381Z,23.73
2024-01-08T16:37:23.721Z,17.73
2024-01-08T16:39:51.541Z,16.73
2024-01-08T16:42:18.938Z,28.52
2024-01-08T16:44:46.414Z,14.95
2024-01-08T16:47:14.153Z,16.48
2024-01-08T16:49:42.554Z,18.88
2024-01-08T16:52:12.325Z,26.67
2024-01-08T16:54:39.725Z,17.65
2024-01-08T16:57:07.081Z,21.45
2024-01-08T16:59:34.745Z,20.45
2024-01-08T17:02:03.206Z,13.82
2024-01-08T17:04:30.564Z,23.55
2024-01-08T17:07:00.820Z,17.40
2024-01-08T17:09:30.968Z,22.65
2024-01-08T17:11:58.449Z,14.95
2024-01-08T17:14:28.760Z,25.08
2024-01-08T17:16:56.222Z,23.58
2024-01-08T17:19:23.665Z,34.33
2024-01-08T17:21:52.399Z,22.70
2024-01-08T17:24:20.010Z,47.50
2024-01-08T17:26:48.651Z,27.30
2024-01-08T17:29:16.133Z,25.60
2024-01-08T17:31:43.533Z,27.30
2024-01-08T17:34:11.134Z,20.50
2024-01-08T17:36:39.059Z,15.85
2024-01-08T17:39:07.194Z,18.20
2024-01-08T17:41:35.109Z,21.30
2024-01-08T17:44:02.757Z,17.42
2024-01-08T17:46:31.869Z,27.13
2024-01-08T17:48:59.838Z,21.38
2024-01-08T17:51:28.321Z,15.55
2024-01-08T17:53:55.943Z,20.83
2024-01-08T17:56:23.623Z,18.83
2024-01-08T17:58:51.848Z,17.20
2024-01-08T18:01:19.670Z,20.48
2024-01-08T18:03:47.943Z,14.40
2024-01-08T18:06:15.643Z,17.90
2024-01-08T18:08:43.297Z,15.30
2024-01-08T18:11:11.608Z,14.57
2024-01-08T18:13:39.107Z,21.38
2024-01-08T18:16:06.923Z,16.50
2024-01-08T18:18:34.304Z,22.20
2024-01-08T18:21:02.037Z,18.67
2024-01-08T18:23:31.193Z,31.45
2024-01-08T18:25:58.743Z,17.77
2024-01-08T18:28:26.248Z,27.55
2024-01-08T18:30:56.568Z,21.45
2024-01-08T18:33:27.896Z,16.35
2024-01-08T18:35:55.407Z,16.77
2024-01-08T18:38:24.396Z,24.85
2024-01-08T18:40:55.197Z,23.55
2024-01-08T18:43:24.232Z,21.52
2024-01-08T18:45:52.246Z,29.42
2024-01-08T18:48:19.780Z,26.42
2024-01-08T18:50:47.781Z,24.02
2024-01-08T18:53:19.409Z,29.00
2024-01-08T18:55:48.721Z,24.30
2024-01-08T18:58:19.376Z,19.67
2024-01-08T19:00:51.044Z,26.15
2024-01-08T19:03:20.840Z,31.05
2024-01-08T19:05:48.425Z,33.50
2024-01-08T19:08:17.237Z,39.30
2024-01-08T19:10:44.866Z,36.00
2024-01-08T19:13:12.154Z,32.95
2024-01-08T19:15:39.572Z,43.70
2024-01-08T19:18:07.224Z,31.90
2024-01-08T19:20:34.672Z,38.60
2024-01-08T19:23:02.311Z,39.35
2024-01-08T19:25:29.611Z,40.58
2024-01-08T19:27:56.823Z,40.22
2024-01-08T19:30:24.347Z,43.35
2024-01-08T19:32:54.826Z,30.38
2024-01-08T19:35:22.810Z,42.83
2024-01-08T19:37:50.540Z,25.20
2024-01-08T19:40:18.236Z,30.00
2024-01-08T19:42:45.493Z,48.72
2024-01-08T19:45:13.404Z,51.33
2024-01-08T19:47:40.786Z,40.25
2024-01-08T19:50:08.627Z,43.35
2024-01-08T19:52:36.180Z,38.83
2024-01-08T19:55:03.644Z,39.47
2024-01-08T19:57:31.023Z,48.08
2024-01-08T19:59:58.504Z,65.20
2024-01-08T20:02:25.848Z,51.50
2024-01-08T20:04:54.256Z,44.55
2024-01-08T20:07:21.848Z,40.63
2024-01-08T20:09:50.055Z,49.28
2024-01-08T20:12:17.455Z,75.78
2024-01-08T20:14:44.953Z,68.45
2024-01-08T20:17:12.970Z,71.32
2024-01-08T20:19:40.648Z,63.85
2024-01-08T20:22:08.062Z,39.88
2024-01-08T20:24:35.864Z,58.75
2024-01-08T20:27:04.101Z,76.53
2024-01-08T20:29:31.586Z,37.17
2024-01-08T20:32:02.992Z,51.38
2024-01-08T20:34:30.476Z,66.18
2024-01-08T20:36:57.833Z,47.38
2024-01-08T20:39:25.464Z,43.83
2024-01-08T20:41:52.890Z,46.50
2024-01-08T20:44:20.861Z,53.65
2024-01-08T20:46:48.596Z,54.42
2024-01-08T20:49:16.189Z,36.17
2024-01-08T20:51:43.655Z,50.40
2024-01-08T20:54:11.386Z,21.77
2024-01-08T20:56:38.871Z,34.35
2024-01-08T20:59:06.225Z,56.65
2024-01-08T21:01:33.647Z,44.25
2024-01-08T21:04:01.140Z,36.63
2024-01-08T21:06:31.512Z,54.72
2024-01-08T21:08:59.959Z,33.97
2024-01-08T21:11:30.089Z,28.90
2024-01-08T21:13:57.432Z,39.22
2024-01-08T21:16:28.965Z,31.15
2024-01-08T21:18:56.389Z,25.67
2024-01-08T21:21:23.832Z,50.92
2024-01-08T21:23:51.314Z,46.60
2024-01-08T21:26:18.683Z,36.55
2024-01-08T21:28:46.163Z,44.28
2024-01-08T21:31:13.727Z,21.85
2024-01-08T21:33:44.279Z,29.23
2024-01-08T21:36:14.274Z,46.53
2024-01-08T21:38:42.278Z,44.13
2024-01-08T21:41:09.797Z,37.10
2024-01-08T21:43:37.107Z,49.08
2024-01-08T21:46:07.401Z,33.67
2024-01-08T21:48:46.947Z,28.83
2024-01-08T21:51:15.474Z,36.47
2024-01-08T21:53:42.701Z,41.35
2024-01-08T21:56:10.116Z,32.53
2024-01-08T21:58:37.462Z,52.25
2024-01-08T22:01:04.782Z,48.08
2024-01-08T22:03:35.995Z,33.55
2024-01-08T22:06:03.364Z,44.15
2024-01-08T22:08:30.686Z,45.45
2024-01-08T22:10:58.153Z,31.95
2024-01-08T22:13:26.112Z,43.35
2024-01-08T22:15:55.155Z,29.48
2024-01-08T22:18:22.645Z,53.15
2024-01-08T22:20:50.021Z,40.80
2024-01-08T22:23:17.329Z,43.25
2024-01-08T22:25:44.581Z,41.35
2024-01-08T22:28:11.768Z,51.72
2024-01-08T22:30:39.041Z,32.63
2024-01-08T22:33:06.537Z,23.08
2024-01-08T22:35:37.345Z,43.60
2024-01-08T22:38:07.891Z,28.05
2024-01-08T22:40:35.540Z,54.60
2024-01-08T22:43:04.111Z,43.85
2024-01-08T22:45:31.623Z,41.83
2024-01-08T22:47:58.919Z,25.95
2024-01-08T22:50:26.346Z,23.25
2024-01-08T22:52:53.564Z,43.03
2024-01-08T22:55:20.900Z,28.35
2024-01-08T22:57:48.342Z,56.35
2024-01-08T23:00:16.073Z,30.35
2024-01-08T23:02:43.845Z,23.58
2024-01-08T23:05:12.206Z,36.20
2024-01-08T23:07:39.660Z,31.60
2024-01-08T23:10:10.263Z,48.40
2024-01-08T23:12:37.536Z,47.83
2024-01-08T23:15:05.436Z,29.23
2024-01-08T23:17:32.919Z,40.10
2024-01-08T23:20:00.323Z,56.42
2024-01-08T23:22:27.873Z,24.70
2024-01-08T23:24:55.328Z,37.03
2024-01-08T23:27:22.812Z,32.55
2024-01-08T23:29:50.482Z,61.55
2024-01-08T23:32:18.363Z,25.65
2024-01-08T23:34:45.789Z,39.15
2024-01-08T23:37:13.186Z,44.97
2024-01-08T23:39:40.590Z,26.90
2024-01-08T23:42:09.233Z,49.28
2024-01-08T23:44:36.795Z,35.67
2024-01-08T23:47:04.374Z,61.10
2024-01-08T23:49:31.750Z,31.60
2024-01-08T23:51:59.025Z,36.75
2024-01-08T23:54:26.548Z,53.28
2024-01-08T23:56:55.357Z,28.77
2024-01-08T23:59:22.662Z,51.20
